Tramway, North Carolina
Current Conditions -  °F | °C
As of 10:55 PM on Sunday 23 Nov 2014 (Local Time) from KTTA Reporting Station
Moderate Rain Moderate Rain  
Wind Chill: 64°   Ceiling: 500
Heat Index: 64°   Visibility: 10mi
Dew Point: 64°   Wind: 5mph
Humidity: 100%   Direction: 140°SE
Pressure: 29.79"   Gusts: NA
Location:  35.493°N, 79.1765°W
Report Text: KTTA 240355Z AUTO 14004KT 10SM RA BKN005 OVC012 18/18 A2979 RMK AO2 T01780178
Loading
Personal Weather Stations






























Interactive Weather Map New forecast layout! Learn more

10-Day Weather Forecast

Advertisements
Track Severe Weather on mobile